createdAt,value
2022-11-25T00:00:02.905Z,2.00
2022-11-25T00:00:25.583Z,2.00
2022-11-25T00:00:48.263Z,2.00
2022-11-25T00:01:12.606Z,2.00
2022-11-25T00:01:35.523Z,2.00
2022-11-25T00:01:58.303Z,2.00
2022-11-25T00:02:22.838Z,2.00
2022-11-25T00:02:45.807Z,2.00
2022-11-25T00:03:08.738Z,2.10
2022-11-25T00:03:31.755Z,2.10
2022-11-25T00:03:55.535Z,2.10
2022-11-25T00:04:18.334Z,2.00
2022-11-25T00:04:43.412Z,2.00
2022-11-25T00:05:06.839Z,2.00
2022-11-25T00:05:29.571Z,2.10
2022-11-25T00:05:52.216Z,2.00
2022-11-25T00:06:16.058Z,2.10
2022-11-25T00:06:38.805Z,2.00
2022-11-25T00:07:01.586Z,2.10
2022-11-25T00:07:24.405Z,2.10
2022-11-25T00:07:47.200Z,2.10
2022-11-25T00:08:09.931Z,2.10
2022-11-25T00:08:32.651Z,2.10
2022-11-25T00:08:56.290Z,2.10
2022-11-25T00:09:19.033Z,2.10
2022-11-25T00:09:41.773Z,2.10
2022-11-25T00:10:06.034Z,2.10
2022-11-25T00:10:28.975Z,2.00
2022-11-25T00:10:52.021Z,2.00
2022-11-25T00:11:14.867Z,2.10
2022-11-25T00:11:40.482Z,2.00
2022-11-25T00:12:03.181Z,2.00
2022-11-25T00:12:25.922Z,2.00
2022-11-25T00:12:48.736Z,2.00
2022-11-25T00:13:11.567Z,2.00
2022-11-25T00:13:34.407Z,2.00
2022-11-25T00:13:57.437Z,1.90
2022-11-25T00:14:20.372Z,2.00
2022-11-25T00:14:43.097Z,1.90
2022-11-25T00:15:06.761Z,1.90
2022-11-25T00:15:29.567Z,1.90
2022-11-25T00:15:52.321Z,1.90
2022-11-25T00:16:18.752Z,1.90
2022-11-25T00:16:45.137Z,2.00
2022-11-25T00:17:11.483Z,2.00
2022-11-25T00:17:34.312Z,2.00
2022-11-25T00:17:57.043Z,2.00
2022-11-25T00:18:19.791Z,2.00
2022-11-25T00:18:46.197Z,2.00
2022-11-25T00:19:10.200Z,2.00
2022-11-25T00:19:33.938Z,2.00
2022-11-25T00:19:56.686Z,2.00
2022-11-25T00:20:21.338Z,1.90
2022-11-25T00:20:44.112Z,2.00
2022-11-25T00:21:07.541Z,2.00
2022-11-25T00:21:35.545Z,1.90
2022-11-25T00:21:58.250Z,1.90
2022-11-25T00:22:20.962Z,2.00
2022-11-25T00:22:43.660Z,2.00
2022-11-25T00:23:08.895Z,1.90
2022-11-25T00:23:33.511Z,2.00
2022-11-25T00:23:56.951Z,2.00
2022-11-25T00:24:19.648Z,2.00
2022-11-25T00:24:42.346Z,2.00
2022-11-25T00:25:06.412Z,2.00
2022-11-25T00:25:29.116Z,2.00
2022-11-25T00:25:51.836Z,2.00
2022-11-25T00:26:15.353Z,2.00
2022-11-25T00:26:39.571Z,2.00
2022-11-25T00:27:05.126Z,2.00
2022-11-25T00:27:27.837Z,2.00
2022-11-25T00:27:52.875Z,2.00
2022-11-25T00:28:15.660Z,2.00
2022-11-25T00:28:38.447Z,2.00
2022-11-25T00:29:01.781Z,1.90
2022-11-25T00:29:24.556Z,2.00
2022-11-25T00:29:47.221Z,1.90
2022-11-25T00:30:11.158Z,1.90
2022-11-25T00:30:34.124Z,1.90
2022-11-25T00:30:56.826Z,1.90
2022-11-25T00:31:20.378Z,1.90
2022-11-25T00:31:43.604Z,1.90
2022-11-25T00:32:06.471Z,1.90
2022-11-25T00:32:29.206Z,1.90
2022-11-25T00:32:52.890Z,1.90
2022-11-25T00:33:15.607Z,1.90
2022-11-25T00:33:38.404Z,1.90
2022-11-25T00:34:01.125Z,1.90
2022-11-25T00:34:23.861Z,1.90
2022-11-25T00:34:46.470Z,1.90
2022-11-25T00:35:09.455Z,2.00
2022-11-25T00:35:35.385Z,2.00
2022-11-25T00:36:00.241Z,2.10
2022-11-25T00:36:24.114Z,2.00
2022-11-25T00:36:46.880Z,2.10
2022-11-25T00:37:09.565Z,2.00
2022-11-25T00:37:32.685Z,2.10
2022-11-25T00:37:55.285Z,2.10
2022-11-25T00:38:17.980Z,2.00
2022-11-25T00:38:40.728Z,2.00
2022-11-25T00:39:05.625Z,2.00
2022-11-25T00:39:29.136Z,2.00
2022-11-25T00:39:52.691Z,2.00
2022-11-25T00:40:15.564Z,1.90
2022-11-25T00:40:38.236Z,1.90
2022-11-25T00:41:19.197Z,1.90
2022-11-25T00:42:01.770Z,1.90
2022-11-25T00:42:42.956Z,1.90
2022-11-25T00:43:25.922Z,1.90
2022-11-25T00:44:07.526Z,1.90
2022-11-25T00:44:36.741Z,1.80
2022-11-25T00:45:00.135Z,1.80
2022-11-25T00:45:22.800Z,1.80
2022-11-25T00:45:45.498Z,1.80
2022-11-25T00:46:08.366Z,1.80
2022-11-25T00:46:31.201Z,1.80
2022-11-25T00:46:53.911Z,1.80
2022-11-25T00:47:17.503Z,1.80
2022-11-25T00:47:40.246Z,1.80
2022-11-25T00:48:02.926Z,1.80
2022-11-25T00:48:25.612Z,1.80
2022-11-25T00:48:48.285Z,1.80
2022-11-25T00:49:11.110Z,1.80
2022-11-25T00:49:33.925Z,1.80
2022-11-25T00:49:56.656Z,1.80
2022-11-25T00:50:19.360Z,1.80
2022-11-25T00:50:44.075Z,1.80
2022-11-25T00:51:06.874Z,1.80
2022-11-25T00:51:29.585Z,1.80
2022-11-25T00:51:52.268Z,1.70
2022-11-25T00:52:16.005Z,1.70
2022-11-25T00:52:38.785Z,1.70
2022-11-25T00:53:01.470Z,1.70
2022-11-25T00:53:25.294Z,1.70
2022-11-25T00:53:48.051Z,1.70
2022-11-25T00:54:10.770Z,1.70
2022-11-25T00:54:33.751Z,1.70
2022-11-25T00:54:56.825Z,1.80
2022-11-25T00:55:19.520Z,1.70
2022-11-25T00:56:00.718Z,1.80
2022-11-25T00:56:23.855Z,1.80
2022-11-25T00:56:48.030Z,1.70
2022-11-25T00:57:10.881Z,1.70
2022-11-25T00:57:33.625Z,1.70
2022-11-25T00:57:56.820Z,1.70
2022-11-25T00:58:19.635Z,1.60
2022-11-25T00:58:42.696Z,1.60
2022-11-25T00:59:05.532Z,1.60
2022-11-25T00:59:28.916Z,1.60
2022-11-25T00:59:51.571Z,1.60
2022-11-25T01:00:15.330Z,1.50
2022-11-25T01:00:38.135Z,1.50
2022-11-25T01:01:02.535Z,1.50
2022-11-25T01:01:25.347Z,1.50
2022-11-25T01:01:48.140Z,1.40
2022-11-25T01:02:11.286Z,1.50
2022-11-25T01:02:34.091Z,1.50
2022-11-25T01:02:57.085Z,1.40
2022-11-25T01:03:19.811Z,1.40
2022-11-25T01:03:42.556Z,1.50
2022-11-25T01:04:08.162Z,1.50
2022-11-25T01:04:30.893Z,1.50
2022-11-25T01:04:53.610Z,1.50
2022-11-25T01:05:16.332Z,1.40
2022-11-25T01:05:39.036Z,1.40
2022-11-25T01:06:01.827Z,1.40
2022-11-25T01:06:24.468Z,1.40
2022-11-25T01:06:47.240Z,1.30
2022-11-25T01:07:12.249Z,1.30
2022-11-25T01:07:35.034Z,1.30
2022-11-25T01:07:58.255Z,1.30
2022-11-25T01:08:20.955Z,1.30
2022-11-25T01:08:43.818Z,1.30
2022-11-25T01:09:06.752Z,1.30
2022-11-25T01:09:29.675Z,1.40
2022-11-25T01:09:52.330Z,1.40
2022-11-25T01:10:15.075Z,1.40
2022-11-25T01:10:37.710Z,1.30
2022-11-25T01:11:00.354Z,1.30
2022-11-25T01:11:23.134Z,1.40
2022-11-25T01:11:47.190Z,1.40
2022-11-25T01:12:09.853Z,1.40
2022-11-25T01:12:34.711Z,1.40
2022-11-25T01:12:57.436Z,1.40
2022-11-25T01:13:20.080Z,1.40
2022-11-25T01:13:42.770Z,1.40
2022-11-25T01:14:06.035Z,1.50
2022-11-25T01:14:28.716Z,1.50
2022-11-25T01:14:51.446Z,1.50
2022-11-25T01:15:14.156Z,1.50
2022-11-25T01:15:37.275Z,1.50
2022-11-25T01:16:01.694Z,1.50
2022-11-25T01:16:24.519Z,1.50
2022-11-25T01:16:47.327Z,1.50
2022-11-25T01:17:09.980Z,1.50
2022-11-25T01:17:33.170Z,1.50
2022-11-25T01:17:55.990Z,1.50
2022-11-25T01:18:18.595Z,1.50
2022-11-25T01:18:41.355Z,1.40
2022-11-25T01:19:04.117Z,1.50
2022-11-25T01:19:27.014Z,1.50
2022-11-25T01:19:49.655Z,1.50
2022-11-25T01:20:12.991Z,1.50
2022-11-25T01:20:35.630Z,1.50
2022-11-25T01:21:06.044Z,1.50
2022-11-25T01:21:29.600Z,1.50
2022-11-25T01:21:52.238Z,1.50
2022-11-25T01:22:14.967Z,1.40
2022-11-25T01:22:37.560Z,1.40
2022-11-25T01:23:00.292Z,1.40
2022-11-25T01:23:22.985Z,1.40
2022-11-25T01:23:46.012Z,1.40
2022-11-25T01:24:08.950Z,1.40
2022-11-25T01:24:31.845Z,1.40
2022-11-25T01:24:54.476Z,1.40
2022-11-25T01:25:17.189Z,1.40
2022-11-25T01:25:39.971Z,1.40
2022-11-25T01:26:03.056Z,1.40
2022-11-25T01:26:25.796Z,1.30
2022-11-25T01:26:49.935Z,1.40
2022-11-25T01:27:12.694Z,1.30
2022-11-25T01:27:35.389Z,1.30
2022-11-25T01:27:58.145Z,1.30
2022-11-25T01:28:20.920Z,1.40
2022-11-25T01:28:43.689Z,1.30
2022-11-25T01:29:08.495Z,1.30
2022-11-25T01:29:31.275Z,1.30
2022-11-25T01:29:53.975Z,1.30
2022-11-25T01:30:17.029Z,1.20
2022-11-25T01:30:41.271Z,1.20
2022-11-25T01:31:05.614Z,1.20
2022-11-25T01:31:29.374Z,1.20
2022-11-25T01:31:52.376Z,1.20
2022-11-25T01:32:17.610Z,1.20
2022-11-25T01:32:40.449Z,1.20
2022-11-25T01:33:05.614Z,1.20
2022-11-25T01:33:28.830Z,1.20
2022-11-25T01:33:56.100Z,1.20
2022-11-25T01:34:19.500Z,1.10
2022-11-25T01:34:42.239Z,1.10
2022-11-25T01:35:07.194Z,1.20
2022-11-25T01:35:30.011Z,1.10
2022-11-25T01:35:52.783Z,1.10
2022-11-25T01:36:17.143Z,1.10
2022-11-25T01:36:39.964Z,1.20
2022-11-25T01:37:05.684Z,1.10
2022-11-25T01:37:28.429Z,1.10
2022-11-25T01:37:51.160Z,1.20
2022-11-25T01:38:13.890Z,1.10
2022-11-25T01:38:36.745Z,1.10
2022-11-25T01:39:00.116Z,1.20
2022-11-25T01:39:30.175Z,1.20
2022-11-25T01:39:54.775Z,1.20
2022-11-25T01:40:17.554Z,1.20
2022-11-25T01:40:40.655Z,1.20
2022-11-25T01:41:03.525Z,1.20
2022-11-25T01:41:26.960Z,1.20
2022-11-25T01:41:51.150Z,1.20
2022-11-25T01:42:13.840Z,1.20
2022-11-25T01:42:38.740Z,1.10
2022-11-25T01:43:01.452Z,1.10
2022-11-25T01:43:24.209Z,1.10
2022-11-25T01:44:05.945Z,1.10
2022-11-25T01:44:28.619Z,1.10
2022-11-25T01:45:36.214Z,1.10
2022-11-25T01:46:00.352Z,1.10
2022-11-25T01:46:24.489Z,1.20
2022-11-25T01:46:53.545Z,1.10
2022-11-25T01:47:18.850Z,1.10
2022-11-25T01:47:41.560Z,1.10
2022-11-25T01:48:10.404Z,1.10
2022-11-25T01:48:36.017Z,1.10
2022-11-25T01:49:00.175Z,1.20
2022-11-25T01:49:30.131Z,1.20
2022-11-25T01:49:55.956Z,1.20
2022-11-25T01:50:19.063Z,1.20
2022-11-25T01:50:41.785Z,1.10
2022-11-25T01:51:04.515Z,1.20
2022-11-25T01:51:29.616Z,1.10
2022-11-25T01:51:54.755Z,1.10
2022-11-25T01:52:18.599Z,1.10
2022-11-25T01:52:44.200Z,1.00
2022-11-25T01:53:07.605Z,1.00
2022-11-25T01:53:30.339Z,1.00
2022-11-25T01:53:53.130Z,1.00
2022-11-25T01:54:17.930Z,1.00
2022-11-25T01:54:43.190Z,1.00
2022-11-25T01:55:08.174Z,1.00
2022-11-25T01:55:34.635Z,1.00
2022-11-25T01:56:00.496Z,1.00
2022-11-25T01:56:23.200Z,1.00
2022-11-25T01:56:49.445Z,1.00
2022-11-25T01:57:15.540Z,1.00
2022-11-25T01:57:39.540Z,1.00
2022-11-25T01:58:04.154Z,1.00
2022-11-25T01:58:28.233Z,1.00
2022-11-25T01:58:51.010Z,1.00
2022-11-25T01:59:13.735Z,1.00
2022-11-25T01:59:38.973Z,1.00
2022-11-25T02:00:02.217Z,1.00
2022-11-25T02:00:25.784Z,0.90
2022-11-25T02:00:51.756Z,1.00
2022-11-25T02:01:14.751Z,1.00
2022-11-25T02:01:37.517Z,1.10
2022-11-25T02:02:00.284Z,1.10
2022-11-25T02:02:23.103Z,1.10
2022-11-25T02:02:46.358Z,1.10
2022-11-25T02:03:09.193Z,1.10
2022-11-25T02:03:33.424Z,1.00
2022-11-25T02:03:56.114Z,1.00
2022-11-25T02:04:18.821Z,1.00
2022-11-25T02:04:41.533Z,1.00
2022-11-25T02:05:07.261Z,1.00
2022-11-25T02:05:34.066Z,1.00
2022-11-25T02:05:59.362Z,1.00
2022-11-25T02:06:24.450Z,0.90
2022-11-25T02:06:50.971Z,0.90
2022-11-25T02:07:15.939Z,0.90
2022-11-25T02:07:40.130Z,0.80
2022-11-25T02:08:02.955Z,0.90
2022-11-25T02:08:25.718Z,0.80
2022-11-25T02:08:51.329Z,0.80
2022-11-25T02:09:14.019Z,0.90
2022-11-25T02:09:37.955Z,0.80
2022-11-25T02:10:00.816Z,0.90
2022-11-25T02:10:25.945Z,0.90
2022-11-25T02:10:48.618Z,0.90
2022-11-25T02:11:11.379Z,0.90
2022-11-25T02:11:35.555Z,0.90
2022-11-25T02:11:58.261Z,0.90
2022-11-25T02:12:22.284Z,1.00
2022-11-25T02:12:46.084Z,1.00
2022-11-25T02:13:08.833Z,1.00
2022-11-25T02:13:31.686Z,1.00
2022-11-25T02:13:54.499Z,1.00
2022-11-25T02:14:17.481Z,1.00
2022-11-25T02:14:40.204Z,1.00
2022-11-25T02:15:02.880Z,1.00
2022-11-25T02:15:25.609Z,1.00
2022-11-25T02:15:48.324Z,1.00
2022-11-25T02:16:11.110Z,1.00
2022-11-25T02:16:33.864Z,1.00
2022-11-25T02:16:56.737Z,1.00
2022-11-25T02:17:19.801Z,1.10
2022-11-25T02:17:43.101Z,1.00
2022-11-25T02:18:05.907Z,1.00
2022-11-25T02:18:28.653Z,1.00
2022-11-25T02:18:51.385Z,1.00
2022-11-25T02:19:17.758Z,1.00
2022-11-25T02:19:51.079Z,1.00
2022-11-25T02:20:15.195Z,1.00
2022-11-25T02:20:39.184Z,1.00
2022-11-25T02:21:02.103Z,1.00
2022-11-25T02:21:26.389Z,1.00
2022-11-25T02:21:52.303Z,1.00
2022-11-25T02:22:19.178Z,1.00
2022-11-25T02:22:47.579Z,0.90
2022-11-25T02:23:16.328Z,0.90
2022-11-25T02:23:41.137Z,0.90
2022-11-25T02:24:08.178Z,0.90
2022-11-25T02:24:33.944Z,0.90
2022-11-25T02:25:01.124Z,0.80
2022-11-25T02:25:26.096Z,0.80
2022-11-25T02:25:48.899Z,0.80
2022-11-25T02:26:11.620Z,0.80
2022-11-25T02:26:34.318Z,0.80
2022-11-25T02:26:57.143Z,0.80
2022-11-25T02:27:19.846Z,0.80
2022-11-25T02:27:43.249Z,0.80
2022-11-25T02:28:07.045Z,0.80
2022-11-25T02:28:30.895Z,0.80
2022-11-25T02:28:53.597Z,0.90
2022-11-25T02:29:16.395Z,0.90
2022-11-25T02:29:39.672Z,0.90
2022-11-25T02:30:02.367Z,0.90
2022-11-25T02:30:26.221Z,0.90
2022-11-25T02:30:49.280Z,0.90
2022-11-25T02:31:12.063Z,1.00
2022-11-25T02:31:34.818Z,1.00
2022-11-25T02:31:57.608Z,1.00
2022-11-25T02:32:23.210Z,1.00
2022-11-25T02:32:46.037Z,0.90
2022-11-25T02:33:08.715Z,0.90
2022-11-25T02:33:31.588Z,0.90
2022-11-25T02:33:54.360Z,0.90
2022-11-25T02:34:19.783Z,0.90
2022-11-25T02:34:47.198Z,0.90
2022-11-25T02:35:26.726Z,0.90
2022-11-25T02:35:50.203Z,0.80
2022-11-25T02:36:16.853Z,0.80
2022-11-25T02:36:39.587Z,0.80
2022-11-25T02:37:02.299Z,0.70
2022-11-25T02:37:24.983Z,0.70
2022-11-25T02:37:47.678Z,0.70
2022-11-25T02:38:11.523Z,0.70
2022-11-25T02:38:38.080Z,0.70
2022-11-25T02:39:01.697Z,0.70
2022-11-25T02:39:24.645Z,0.70
2022-11-25T02:39:47.359Z,0.70
2022-11-25T02:40:12.183Z,0.70
2022-11-25T02:40:39.339Z,0.70
2022-11-25T02:41:06.553Z,0.70
2022-11-25T02:41:30.693Z,0.70
2022-11-25T02:41:54.549Z,0.70
2022-11-25T02:42:17.443Z,0.70
2022-11-25T02:42:40.162Z,0.70
2022-11-25T02:43:02.873Z,0.70
2022-11-25T02:43:27.239Z,0.70
2022-11-25T02:43:49.918Z,0.70
2022-11-25T02:44:12.597Z,0.70
2022-11-25T02:44:35.552Z,0.70
2022-11-25T02:44:58.763Z,0.70
2022-11-25T02:45:23.239Z,0.70
2022-11-25T02:45:53.407Z,0.70
2022-11-25T02:46:21.936Z,0.70
2022-11-25T02:46:45.279Z,0.70
2022-11-25T02:47:07.999Z,0.60
2022-11-25T02:47:30.804Z,0.70
2022-11-25T02:47:53.498Z,0.60
2022-11-25T02:48:16.166Z,0.70
2022-11-25T02:49:07.327Z,0.70
2022-11-25T02:49:22.326Z,0.70
2022-11-25T02:49:45.116Z,0.80
2022-11-25T02:50:08.874Z,0.80
2022-11-25T02:50:31.549Z,0.80
2022-11-25T02:50:54.195Z,0.80
2022-11-25T02:51:18.372Z,0.80
2022-11-25T02:51:44.165Z,0.80
2022-11-25T02:52:06.834Z,0.80
2022-11-25T02:52:29.435Z,0.80
2022-11-25T02:52:52.125Z,0.80
2022-11-25T02:53:15.061Z,0.80
2022-11-25T02:53:38.736Z,0.80
2022-11-25T02:54:01.616Z,0.70
2022-11-25T02:54:24.320Z,0.70
2022-11-25T02:54:49.444Z,0.70
2022-11-25T02:55:12.170Z,0.70
2022-11-25T02:55:36.290Z,0.70
2022-11-25T02:55:59.015Z,0.70
2022-11-25T02:56:23.634Z,0.80
2022-11-25T02:56:46.550Z,0.70
2022-11-25T02:57:09.242Z,0.70
2022-11-25T02:57:32.014Z,0.70
2022-11-25T02:57:57.421Z,0.70
2022-11-25T02:58:20.100Z,0.70
2022-11-25T02:58:47.052Z,0.70
2022-11-25T02:59:09.888Z,0.70
2022-11-25T02:59:34.890Z,0.70
2022-11-25T02:59:57.632Z,0.60
2022-11-25T03:00:20.917Z,0.60
2022-11-25T03:00:43.720Z,0.60
2022-11-25T03:01:09.728Z,0.50
2022-11-25T03:01:32.714Z,0.50
2022-11-25T03:01:55.659Z,0.50
2022-11-25T03:02:18.448Z,0.50
2022-11-25T03:02:41.228Z,0.60
2022-11-25T03:03:04.245Z,0.60
2022-11-25T03:03:26.947Z,0.60
2022-11-25T03:03:49.612Z,0.60
2022-11-25T03:04:12.562Z,0.60
2022-11-25T03:04:35.499Z,0.60
2022-11-25T03:04:58.392Z,0.60
2022-11-25T03:05:21.350Z,0.50
2022-11-25T03:05:44.157Z,0.60
2022-11-25T03:06:07.137Z,0.60
2022-11-25T03:06:30.020Z,0.60
2022-11-25T03:06:52.641Z,0.60
2022-11-25T03:07:15.389Z,0.60
2022-11-25T03:07:38.078Z,0.60
2022-11-25T03:08:01.042Z,0.60
2022-11-25T03:08:24.808Z,0.60
2022-11-25T03:08:47.514Z,0.60
2022-11-25T03:09:10.249Z,0.60
2022-11-25T03:09:33.052Z,0.60
2022-11-25T03:09:55.771Z,0.60
2022-11-25T03:10:18.554Z,0.60
2022-11-25T03:10:42.718Z,0.60
2022-11-25T03:11:05.722Z,0.50
2022-11-25T03:11:47.357Z,0.50
2022-11-25T03:12:22.093Z,0.50
2022-11-25T03:12:45.304Z,0.50
2022-11-25T03:13:08.397Z,0.50
2022-11-25T03:13:31.431Z,0.50
2022-11-25T03:13:54.139Z,0.50
2022-11-25T03:14:17.182Z,0.50
2022-11-25T03:14:39.900Z,0.50
2022-11-25T03:15:02.613Z,0.50
2022-11-25T03:15:25.682Z,0.50
2022-11-25T03:15:48.523Z,0.50
2022-11-25T03:16:11.261Z,0.50
2022-11-25T03:16:34.136Z,0.50
2022-11-25T03:16:56.922Z,0.50
2022-11-25T03:17:19.672Z,0.50
2022-11-25T03:17:42.409Z,0.50
2022-11-25T03:18:07.995Z,0.50
2022-11-25T03:18:30.684Z,0.50
2022-11-25T03:18:53.317Z,0.50
2022-11-25T03:19:16.007Z,0.50
2022-11-25T03:19:38.741Z,0.50
2022-11-25T03:20:01.489Z,0.50
2022-11-25T03:20:24.502Z,0.50
2022-11-25T03:20:49.706Z,0.50
2022-11-25T03:21:12.485Z,0.50
2022-11-25T03:21:35.222Z,0.40
2022-11-25T03:21:57.910Z,0.40
2022-11-25T03:22:21.087Z,0.40
2022-11-25T03:22:43.948Z,0.40
2022-11-25T03:23:06.758Z,0.40
2022-11-25T03:23:29.435Z,0.50
2022-11-25T03:23:52.183Z,0.50
2022-11-25T03:24:14.926Z,0.50
2022-11-25T03:24:40.063Z,0.50
2022-11-25T03:25:02.764Z,0.60
2022-11-25T03:25:25.459Z,0.60
2022-11-25T03:25:49.662Z,0.60
2022-11-25T03:26:12.427Z,0.60
2022-11-25T03:26:35.206Z,0.70
2022-11-25T03:26:57.862Z,0.70
2022-11-25T03:27:20.608Z,0.70
2022-11-25T03:27:43.307Z,0.70
2022-11-25T03:28:06.028Z,0.70
2022-11-25T03:28:28.707Z,0.60
2022-11-25T03:28:51.373Z,0.70
2022-11-25T03:29:14.035Z,0.70
2022-11-25T03:29:37.788Z,0.70
2022-11-25T03:30:03.078Z,0.70
2022-11-25T03:30:26.962Z,0.70
2022-11-25T03:30:49.733Z,0.70
2022-11-25T03:31:12.500Z,0.60
2022-11-25T03:31:35.334Z,0.60
2022-11-25T03:31:58.157Z,0.60
2022-11-25T03:32:20.927Z,0.60
2022-11-25T03:32:43.658Z,0.60
2022-11-25T03:33:06.402Z,0.60
2022-11-25T03:33:29.127Z,0.60
2022-11-25T03:33:51.829Z,0.60
2022-11-25T03:34:14.561Z,0.60
2022-11-25T03:34:39.694Z,0.50
2022-11-25T03:35:02.383Z,0.50
2022-11-25T03:35:25.032Z,0.50
2022-11-25T03:35:49.372Z,0.50
2022-11-25T03:36:11.982Z,0.50
2022-11-25T03:36:34.679Z,0.50
2022-11-25T03:36:57.488Z,0.50
2022-11-25T03:37:20.564Z,0.50
2022-11-25T03:37:43.309Z,0.50
2022-11-25T03:38:06.032Z,0.50
2022-11-25T03:38:28.682Z,0.40
2022-11-25T03:38:51.357Z,0.40
2022-11-25T03:39:14.090Z,0.40
2022-11-25T03:39:36.799Z,0.40
2022-11-25T03:39:59.514Z,0.30
2022-11-25T03:40:22.246Z,0.40
2022-11-25T03:40:44.960Z,0.40
2022-11-25T03:41:09.128Z,0.30
2022-11-25T03:41:31.903Z,0.30
2022-11-25T03:41:54.646Z,0.40
2022-11-25T03:42:17.371Z,0.40
2022-11-25T03:42:40.079Z,0.40
2022-11-25T03:43:02.842Z,0.40
2022-11-25T03:43:25.561Z,0.40
2022-11-25T03:43:49.073Z,0.40
2022-11-25T03:44:11.928Z,0.40
2022-11-25T03:44:37.594Z,0.40
2022-11-25T03:45:00.621Z,0.40
2022-11-25T03:45:23.320Z,0.30
2022-11-25T03:45:49.336Z,0.30
2022-11-25T03:46:12.061Z,0.30
2022-11-25T03:46:34.852Z,0.30
2022-11-25T03:46:57.520Z,0.30
2022-11-25T03:47:20.211Z,0.30
2022-11-25T03:47:43.187Z,0.30
2022-11-25T03:48:06.086Z,0.30
2022-11-25T03:48:28.756Z,0.30
2022-11-25T03:48:51.437Z,0.30
2022-11-25T03:49:14.172Z,0.30
2022-11-25T03:49:37.006Z,0.30
2022-11-25T03:50:02.125Z,0.30
2022-11-25T03:50:24.809Z,0.30
2022-11-25T03:50:49.521Z,0.30
2022-11-25T03:51:12.120Z,0.40
2022-11-25T03:51:34.912Z,0.40
2022-11-25T03:51:57.562Z,0.40
2022-11-25T03:52:20.311Z,0.40
2022-11-25T03:52:43.001Z,0.40
2022-11-25T03:53:05.725Z,0.40
2022-11-25T03:53:28.481Z,0.40
2022-11-25T03:53:51.225Z,0.40
2022-11-25T03:54:13.846Z,0.40
2022-11-25T03:54:36.760Z,0.30
2022-11-25T03:54:59.756Z,0.30
2022-11-25T03:55:22.434Z,0.30
2022-11-25T03:55:47.416Z,0.30
2022-11-25T03:56:11.587Z,0.30
2022-11-25T03:56:34.374Z,0.30
2022-11-25T03:56:57.149Z,0.30
2022-11-25T03:57:19.852Z,0.30
2022-11-25T03:57:42.629Z,0.30
2022-11-25T03:58:05.386Z,0.30
2022-11-25T03:58:28.131Z,0.30
2022-11-25T03:58:53.581Z,0.30
2022-11-25T03:59:16.297Z,0.30
2022-11-25T03:59:40.147Z,0.30
2022-11-25T04:00:03.096Z,0.30
2022-11-25T04:00:25.867Z,0.30
2022-11-25T04:00:48.524Z,0.30
2022-11-25T04:01:11.333Z,0.30
2022-11-25T04:01:34.140Z,0.30
2022-11-25T04:01:57.013Z,0.30
2022-11-25T04:02:19.754Z,0.30
2022-11-25T04:02:42.644Z,0.30
2022-11-25T04:03:05.441Z,0.30
2022-11-25T04:03:28.520Z,0.30
2022-11-25T04:03:51.211Z,0.30
2022-11-25T04:04:14.886Z,0.30
2022-11-25T04:04:37.870Z,0.30
2022-11-25T04:05:00.806Z,0.30
2022-11-25T04:05:23.515Z,0.30
2022-11-25T04:05:46.314Z,0.30
2022-11-25T04:06:09.132Z,0.30
2022-11-25T04:06:32.239Z,0.20
2022-11-25T04:06:54.926Z,0.20
2022-11-25T04:07:17.746Z,0.20
2022-11-25T04:07:43.215Z,0.20
2022-11-25T04:08:06.272Z,0.20
2022-11-25T04:08:29.020Z,0.20
2022-11-25T04:08:51.826Z,0.30
2022-11-25T04:09:14.746Z,0.30
2022-11-25T04:09:37.412Z,0.30
2022-11-25T04:10:00.151Z,0.30
2022-11-25T04:10:22.908Z,0.30
2022-11-25T04:10:45.571Z,0.30
2022-11-25T04:11:08.266Z,0.30
2022-11-25T04:11:50.925Z,0.30
2022-11-25T04:12:32.246Z,0.30
2022-11-25T04:12:54.926Z,0.40
2022-11-25T04:13:17.665Z,0.30
2022-11-25T04:13:40.405Z,0.30
2022-11-25T04:14:03.126Z,0.30
2022-11-25T04:14:28.968Z,0.30
2022-11-25T04:14:51.945Z,0.30
2022-11-25T04:15:14.900Z,0.30
2022-11-25T04:15:37.607Z,0.30
2022-11-25T04:16:00.323Z,0.30
2022-11-25T04:16:24.129Z,0.30
2022-11-25T04:16:46.935Z,0.30
2022-11-25T04:17:10.037Z,0.30
2022-11-25T04:17:32.728Z,0.30
2022-11-25T04:17:55.392Z,0.30
2022-11-25T04:18:18.546Z,0.30
2022-11-25T04:18:41.297Z,0.20
2022-11-25T04:19:04.047Z,0.30
2022-11-25T04:19:26.817Z,0.20
2022-11-25T04:19:49.577Z,0.20
2022-11-25T04:20:13.214Z,0.20
2022-11-25T04:20:35.876Z,0.20
2022-11-25T04:20:58.686Z,0.20
2022-11-25T04:21:21.411Z,0.20
2022-11-25T04:21:46.825Z,0.20
2022-11-25T04:22:13.591Z,0.20
2022-11-25T04:22:36.386Z,0.20
2022-11-25T04:22:59.091Z,0.20
2022-11-25T04:23:21.788Z,0.20
2022-11-25T04:23:44.492Z,0.10
2022-11-25T04:24:11.692Z,0.20
2022-11-25T04:24:34.980Z,0.20
2022-11-25T04:24:58.191Z,0.20
2022-11-25T04:25:20.852Z,0.10
2022-11-25T04:25:43.546Z,0.10
2022-11-25T04:26:06.246Z,0.10
2022-11-25T04:26:32.192Z,0.10
2022-11-25T04:26:56.325Z,0.10
2022-11-25T04:27:20.450Z,0.10
2022-11-25T04:27:43.871Z,0.20
2022-11-25T04:28:09.156Z,0.10
2022-11-25T04:28:34.646Z,0.10
2022-11-25T04:28:57.377Z,0.10
2022-11-25T04:29:20.205Z,0.10
2022-11-25T04:29:42.887Z,0.10
2022-11-25T04:30:07.690Z,0.10
2022-11-25T04:30:30.443Z,0.10
2022-11-25T04:30:53.182Z,0.10
2022-11-25T04:31:15.944Z,0.10
2022-11-25T04:31:38.666Z,0.10
2022-11-25T04:32:01.456Z,0.10
2022-11-25T04:32:24.166Z,0.10
2022-11-25T04:32:46.839Z,0.00
2022-11-25T04:33:09.629Z,0.10
2022-11-25T04:33:32.706Z,0.00
2022-11-25T04:33:55.406Z,0.00
2022-11-25T04:34:18.071Z,0.00
2022-11-25T04:34:41.112Z,0.10
2022-11-25T04:35:05.980Z,0.10
2022-11-25T04:35:28.884Z,0.10
2022-11-25T04:35:51.532Z,0.10
2022-11-25T04:36:14.270Z,0.10
2022-11-25T04:36:36.990Z,0.20
2022-11-25T04:36:59.675Z,0.20
2022-11-25T04:37:22.465Z,0.20
2022-11-25T04:37:45.120Z,0.20
2022-11-25T04:38:07.835Z,0.20
2022-11-25T04:38:30.619Z,0.20
2022-11-25T04:38:53.279Z,0.20
2022-11-25T04:39:15.964Z,0.20
2022-11-25T04:39:38.714Z,0.20
2022-11-25T04:40:01.464Z,0.30
2022-11-25T04:40:24.219Z,0.30
2022-11-25T04:40:46.875Z,0.20
2022-11-25T04:41:09.630Z,0.30
2022-11-25T04:41:32.371Z,0.30
2022-11-25T04:42:16.486Z,0.20
2022-11-25T04:42:39.910Z,0.20
2022-11-25T04:43:07.530Z,0.20
2022-11-25T04:43:33.114Z,0.20
2022-11-25T04:43:55.804Z,0.20
2022-11-25T04:44:18.494Z,0.20
2022-11-25T04:44:41.206Z,0.20
2022-11-25T04:45:24.637Z,0.20
2022-11-25T04:46:34.340Z,0.20
2022-11-25T04:46:57.146Z,0.20
2022-11-25T04:47:19.883Z,0.20
2022-11-25T04:47:42.758Z,0.20
2022-11-25T04:48:08.494Z,0.20
2022-11-25T04:48:31.194Z,0.20
2022-11-25T04:48:53.938Z,0.20
2022-11-25T04:49:16.613Z,0.20
2022-11-25T04:49:39.411Z,0.20
2022-11-25T04:50:02.123Z,0.20
2022-11-25T04:50:24.951Z,0.20
2022-11-25T04:50:47.695Z,0.30
2022-11-25T04:51:10.563Z,0.20
2022-11-25T04:51:33.305Z,0.20
2022-11-25T04:51:56.100Z,0.20
2022-11-25T04:52:18.849Z,0.20
2022-11-25T04:52:41.541Z,0.20
2022-11-25T04:53:05.280Z,0.20
2022-11-25T04:53:27.983Z,0.20
2022-11-25T04:53:50.755Z,0.20
2022-11-25T04:54:17.407Z,0.20
2022-11-25T04:54:40.495Z,0.20
2022-11-25T04:55:03.253Z,0.20
2022-11-25T04:55:26.043Z,0.10
2022-11-25T04:55:48.723Z,0.30
2022-11-25T04:56:13.092Z,0.10
2022-11-25T04:56:35.821Z,0.10
2022-11-25T04:56:59.998Z,0.10
2022-11-25T04:57:22.724Z,0.10
2022-11-25T04:57:47.711Z,0.10
2022-11-25T04:58:10.720Z,0.10
2022-11-25T04:58:56.273Z,0.10
2022-11-25T04:59:37.755Z,0.00
2022-11-25T05:00:00.485Z,0.10
2022-11-25T05:00:23.376Z,0.10
2022-11-25T05:00:46.116Z,0.20
2022-11-25T05:01:08.910Z,0.20
2022-11-25T05:01:31.794Z,0.20
2022-11-25T05:01:54.654Z,0.20
2022-11-25T05:02:18.593Z,0.20
2022-11-25T05:02:42.164Z,0.20
2022-11-25T05:03:05.191Z,0.20
2022-11-25T05:03:27.856Z,0.20
2022-11-25T05:03:55.972Z,0.20
2022-11-25T05:04:20.012Z,0.20
2022-11-25T05:04:43.590Z,0.20
2022-11-25T05:05:07.401Z,0.20
2022-11-25T05:05:30.407Z,0.20
2022-11-25T05:05:53.122Z,0.20
2022-11-25T05:06:15.842Z,0.20
2022-11-25T05:06:38.561Z,0.20
2022-11-25T05:07:01.290Z,0.20
2022-11-25T05:07:26.545Z,0.20
2022-11-25T05:07:49.659Z,0.20
2022-11-25T05:08:12.349Z,0.20
2022-11-25T05:08:37.720Z,0.20
2022-11-25T05:09:00.368Z,0.20
2022-11-25T05:09:25.430Z,0.20
2022-11-25T05:09:48.130Z,0.20
2022-11-25T05:10:10.866Z,0.10
2022-11-25T05:10:33.596Z,0.10
2022-11-25T05:10:56.306Z,0.10
2022-11-25T05:11:19.105Z,0.10
2022-11-25T05:11:41.752Z,0.10
2022-11-25T05:12:06.367Z,0.10
2022-11-25T05:12:29.740Z,0.10
2022-11-25T05:12:52.352Z,0.10
2022-11-25T05:13:15.016Z,0.10
2022-11-25T05:13:37.650Z,0.10
2022-11-25T05:14:00.330Z,0.00
2022-11-25T05:14:24.190Z,0.10
2022-11-25T05:14:46.861Z,0.00
2022-11-25T05:15:10.665Z,0.00
2022-11-25T05:15:33.615Z,0.00
2022-11-25T05:15:58.591Z,0.00
2022-11-25T05:16:21.251Z,0.00
2022-11-25T05:16:44.055Z,0.00
2022-11-25T05:17:08.189Z,0.00
2022-11-25T05:17:31.430Z,0.00
2022-11-25T05:17:54.101Z,-0.10
2022-11-25T05:18:17.080Z,-0.10